Time,TemperatureF,DewpointF,PressureIn,WindDirection,WindDirectionDegrees,WindSpeedMPH,WindSpeedGustMPH,Humidity,HourlyPrecipIn,Conditions,Clouds,dailyrainin,SoftwareType,DateUTC
2015-05-06 00:00:00,41.3,28.9,29.86,NE,34,0.0,0.0,61,0.00,RA,,0.00,WeatherDisplay:10.37,2015-05-06 06:00:00,
2015-05-06 00:05:00,41.1,28.3,29.86,NE,34,0.0,0.0,60,0.00,RA,,0.00,WeatherDisplay:10.37,2015-05-06 06:05:00,
2015-05-06 00:10:00,40.8,27.6,29.86,NE,34,0.0,0.0,59,0.00,CLR,,0.00,WeatherDisplay:10.37,2015-05-06 06:10:00,
2015-05-06 00:15:00,40.6,27.8,29.86,NE,34,0.0,0.0,60,0.00,CLR,,0.00,WeatherDisplay:10.37,2015-05-06 06:15:00,
2015-05-06 00:20:00,40.2,28.2,29.87,NE,34,0.0,0.0,62,0.00,CLR,,0.00,WeatherDisplay:10.37,2015-05-06 06:20:00,
2015-05-06 00:25:00,39.8,27.4,29.87,NE,34,0.0,0.0,61,0.00,CLR,,0.00,WeatherDisplay:10.37,2015-05-06 06:25:00,
2015-05-06 00:30:00,39.5,28.3,29.87,NE,34,0.0,0.0,64,0.00,CLR,,0.00,WeatherDisplay:10.37,2015-05-06 06:30:00,
2015-05-06 00:35:00,39.1,29.1,29.87,NE,34,2.3,2.3,67,0.00,CLR,,0.00,WeatherDisplay:10.37,2015-05-06 06:35:00,
2015-05-06 00:40:00,38.6,28.9,29.87,NE,34,1.2,1.2,68,0.00,CLR,,0.00,WeatherDisplay:10.37,2015-05-06 06:40:00,
2015-05-06 00:45:00,38.0,28.4,29.88,NE,34,3.5,3.5,68,0.00,CLR,,0.00,WeatherDisplay:10.37,2015-05-06 06:45:00,
2015-05-06 00:50:00,37.6,29.0,29.88,NE,34,0.0,0.0,71,0.00,CLR,,0.00,WeatherDisplay:10.37,2015-05-06 06:50:00,
2015-05-06 00:55:00,37.5,28.6,29.88,NE,34,0.0,0.0,70,0.00,CLR,,0.00,WeatherDisplay:10.37,2015-05-06 06:55:00,
2015-05-06 01:00:00,37.2,28.3,29.88,NE,34,0.0,0.0,70,0.00,CLR,,0.00,WeatherDisplay:10.37,2015-05-06 07:00:00,
2015-05-06 01:05:00,37.0,28.1,29.88,NE,34,0.0,0.0,70,0.00,CLR,,0.00,WeatherDisplay:10.37,2015-05-06 07:05:00,
2015-05-06 01:10:00,36.8,28.6,29.88,NE,34,0.0,0.0,72,0.00,CLR,,0.00,WeatherDisplay:10.37,2015-05-06 07:10:00,
2015-05-06 01:15:00,36.3,28.1,29.88,NE,34,0.0,0.0,72,0.00,CLR,,0.00,WeatherDisplay:10.37,2015-05-06 07:15:00,
2015-05-06 01:20:00,36.2,28.0,29.89,NE,34,0.0,0.0,72,0.00,CLR,,0.00,WeatherDisplay:10.37,2015-05-06 07:20:00,
2015-05-06 01:25:00,35.9,27.7,29.89,NE,34,0.0,0.0,72,0.00,CLR,,0.00,WeatherDisplay:10.37,2015-05-06 07:25:00,
2015-05-06 01:30:00,35.6,27.8,29.89,NE,34,2.3,2.3,73,0.00,CLR,,0.00,WeatherDisplay:10.37,2015-05-06 07:30:00,
2015-05-06 01:35:00,35.3,27.8,29.89,NE,34,0.0,0.0,74,0.00,CLR,,0.00,WeatherDisplay:10.37,2015-05-06 07:35:00,
2015-05-06 01:40:00,35.2,28.1,29.89,NE,34,0.0,0.0,75,0.00,CLR,,0.00,WeatherDisplay:10.37,2015-05-06 07:40:00,
2015-05-06 01:45:00,34.9,27.8,29.89,NE,34,0.0,0.0,75,0.00,CLR,,0.00,WeatherDisplay:10.37,2015-05-06 07:45:00,
2015-05-06 01:50:00,34.7,27.3,29.89,NE,34,0.0,0.0,74,0.00,CLR,,0.00,WeatherDisplay:10.37,2015-05-06 07:50:00,
2015-05-06 01:55:00,34.6,27.5,29.87,NE,34,0.0,0.0,75,0.00,CLR,,0.00,WeatherDisplay:10.37,2015-05-06 07:55:00,
2015-05-06 02:00:00,34.4,27.6,29.88,NE,34,0.0,0.0,76,0.00,CLR,,0.00,WeatherDisplay:10.37,2015-05-06 08:00:00,
2015-05-06 02:05:00,34.1,27.3,29.88,NE,34,0.0,0.0,76,0.00,CLR,,0.00,WeatherDisplay:10.37,2015-05-06 08:05:00,
2015-05-06 02:10:00,33.8,27.4,29.88,NE,34,0.0,0.0,77,0.00,CLR,,0.00,WeatherDisplay:10.37,2015-05-06 08:10:00,
2015-05-06 02:15:00,33.7,27.6,29.88,NE,34,0.0,0.0,78,0.00,CLR,,0.00,WeatherDisplay:10.37,2015-05-06 08:15:00,
2015-05-06 02:20:00,33.5,27.4,29.88,NE,34,0.0,0.0,78,0.00,CLR,,0.00,WeatherDisplay:10.37,2015-05-06 08:20:00,
2015-05-06 02:25:00,33.4,27.3,29.88,NE,34,0.0,0.0,78,0.00,CLR,,0.00,WeatherDisplay:10.37,2015-05-06 08:25:00,
2015-05-06 02:30:00,33.4,27.3,29.88,NE,34,0.0,0.0,78,0.00,CLR,,0.00,WeatherDisplay:10.37,2015-05-06 08:30:00,
2015-05-06 02:35:00,33.2,27.4,29.88,NE,34,3.5,3.5,79,0.00,CLR,,0.00,WeatherDisplay:10.37,2015-05-06 08:35:00,
2015-05-06 02:40:00,33.2,27.4,29.88,NE,34,3.5,3.5,79,0.00,CLR,,0.00,WeatherDisplay:10.37,2015-05-06 08:40:00,
2015-05-06 02:45:00,33.2,27.7,29.88,NE,34,3.5,3.5,80,0.00,CLR,,0.00,WeatherDisplay:10.37,2015-05-06 08:45:00,
2015-05-06 02:50:00,33.2,27.7,29.88,NE,34,0.0,0.0,80,0.00,CLR,,0.00,WeatherDisplay:10.37,2015-05-06 08:50:00,
2015-05-06 02:55:00,33.2,28.0,29.89,NE,34,0.0,0.0,81,0.00,CLR,,0.00,WeatherDisplay:10.37,2015-05-06 08:55:00,
2015-05-06 03:00:00,33.4,28.5,29.89,NE,34,0.0,0.0,82,0.00,CLR,,0.00,WeatherDisplay:10.37,2015-05-06 09:00:00,
2015-05-06 03:05:00,33.2,27.7,29.89,NE,34,2.3,0.0,80,0.00,CLR,,0.00,WeatherDisplay:10.37,2015-05-06 09:05:00,
2015-05-06 03:10:00,32.9,27.4,29.89,NE,34,0.0,0.0,80,0.00,CLR,,0.00,WeatherDisplay:10.37,2015-05-06 09:10:00,
2015-05-06 03:15:00,32.8,27.0,29.89,NE,34,0.0,0.0,79,0.00,CLR,,0.00,WeatherDisplay:10.37,2015-05-06 09:15:00,
2015-05-06 03:20:00,32.5,27.0,29.89,NE,34,0.0,0.0,80,0.00,CLR,,0.00,WeatherDisplay:10.37,2015-05-06 09:20:00,
2015-05-06 03:25:00,32.2,26.7,29.90,NE,34,3.5,0.0,80,0.00,CLR,,0.00,WeatherDisplay:10.37,2015-05-06 09:25:00,
2015-05-06 03:30:00,31.9,27.0,29.90,NE,34,0.0,0.0,82,0.00,CLR,,0.00,WeatherDisplay:10.37,2015-05-06 09:30:00,
2015-05-06 03:35:00,31.8,27.2,29.90,NE,34,0.0,0.0,83,0.00,CLR,,0.00,WeatherDisplay:10.37,2015-05-06 09:35:00,
2015-05-06 03:40:00,31.5,27.2,29.90,NE,34,0.0,0.0,84,0.00,CLR,,0.00,WeatherDisplay:10.37,2015-05-06 09:40:00,
2015-05-06 03:45:00,31.3,26.7,29.90,NE,34,3.5,3.5,83,0.00,CLR,,0.00,WeatherDisplay:10.37,2015-05-06 09:45:00,
2015-05-06 03:50:00,30.9,25.8,29.90,NE,34,2.3,0.0,81,0.00,CLR,,0.00,WeatherDisplay:10.37,2015-05-06 09:50:00,
2015-05-06 03:55:00,30.7,25.6,29.90,NE,34,0.0,0.0,81,0.00,CLR,,0.00,WeatherDisplay:10.37,2015-05-06 09:55:00,
2015-05-06 04:00:00,30.4,25.6,29.90,NE,34,0.0,0.0,82,0.00,CLR,,0.00,WeatherDisplay:10.37,2015-05-06 10:00:00,
2015-05-06 04:05:00,30.3,25.8,29.90,NE,34,0.0,0.0,83,0.00,CLR,,0.00,WeatherDisplay:10.37,2015-05-06 10:05:00,
2015-05-06 04:10:00,30.1,25.8,29.89,NE,34,2.3,2.3,84,0.00,CLR,,0.00,WeatherDisplay:10.37,2015-05-06 10:10:00,
2015-05-06 04:15:00,29.8,25.3,29.89,NE,34,0.0,0.0,83,0.00,CLR,,0.00,WeatherDisplay:10.37,2015-05-06 10:15:00,
2015-05-06 04:20:00,29.7,25.5,29.89,NE,34,0.0,0.0,84,0.00,CLR,,0.00,WeatherDisplay:10.37,2015-05-06 10:20:00,
2015-05-06 04:25:00,29.7,25.7,29.90,NE,34,0.0,0.0,85,0.00,CLR,,0.00,WeatherDisplay:10.37,2015-05-06 10:25:00,
2015-05-06 04:30:00,29.7,25.7,29.90,NE,34,0.0,0.0,85,0.00,CLR,,0.00,WeatherDisplay:10.37,2015-05-06 10:30:00,
2015-05-06 04:35:00,29.7,25.7,29.90,NE,34,3.5,3.5,85,0.00,CLR,,0.00,WeatherDisplay:10.37,2015-05-06 10:35:00,
2015-05-06 04:40:00,29.5,25.3,29.90,NE,34,2.3,2.3,84,0.00,CLR,,0.00,WeatherDisplay:10.37,2015-05-06 10:40:00,
2015-05-06 04:45:00,29.4,25.2,29.90,NE,34,2.3,2.3,84,0.00,CLR,,0.00,WeatherDisplay:10.37,2015-05-06 10:45:00,
2015-05-06 04:50:00,29.4,25.4,29.91,NE,34,0.0,0.0,85,0.00,CLR,,0.00,WeatherDisplay:10.37,2015-05-06 10:50:00,
2015-05-06 04:55:00,29.3,25.1,29.91,NE,34,0.0,0.0,84,0.00,CLR,,0.00,WeatherDisplay:10.37,2015-05-06 10:55:00,
2015-05-06 05:00:00,29.3,25.4,29.92,NE,34,0.0,0.0,85,0.00,CLR,,0.00,WeatherDisplay:10.37,2015-05-06 11:00:00,
2015-05-06 05:06:00,29.1,25.2,29.92,NE,34,0.0,0.0,85,0.00,CLR,,0.00,WeatherDisplay:10.37,2015-05-06 11:06:00,
2015-05-06 05:11:00,29.1,25.4,29.92,NE,34,0.0,0.0,86,0.00,CLR,,0.00,WeatherDisplay:10.37,2015-05-06 11:11:00,
2015-05-06 05:16:00,29.0,25.6,29.92,NE,34,0.0,0.0,87,0.00,CLR,,0.00,WeatherDisplay:10.37,2015-05-06 11:16:00,
2015-05-06 05:21:00,29.0,25.6,29.92,NE,34,0.0,0.0,87,0.00,CLR,,0.00,WeatherDisplay:10.37,2015-05-06 11:21:00,
2015-05-06 05:26:00,28.8,25.4,29.92,NE,34,0.0,0.0,87,0.00,CLR,,0.00,WeatherDisplay:10.37,2015-05-06 11:26:00,
2015-05-06 05:31:00,28.7,25.3,29.92,NE,34,0.0,0.0,87,0.00,CLR,,0.00,WeatherDisplay:10.37,2015-05-06 11:31:00,
2015-05-06 05:36:00,28.4,24.7,29.92,NE,34,0.0,0.0,86,0.00,CLR,,0.00,WeatherDisplay:10.37,2015-05-06 11:36:00,
2015-05-06 05:41:00,28.2,24.6,29.92,NE,34,0.0,0.0,86,0.00,CLR,,0.00,WeatherDisplay:10.37,2015-05-06 11:41:00,
2015-05-06 05:46:00,27.9,24.5,29.93,NE,34,0.0,0.0,87,0.00,CLR,,0.00,WeatherDisplay:10.37,2015-05-06 11:46:00,
2015-05-06 05:51:00,27.9,24.5,29.93,NE,34,0.0,0.0,87,0.00,CLR,,0.00,WeatherDisplay:10.37,2015-05-06 11:51:00,
2015-05-06 05:56:00,27.8,24.7,29.93,NE,34,0.0,0.0,88,0.00,CLR,,0.00,WeatherDisplay:10.37,2015-05-06 11:56:00,
2015-05-06 06:01:00,27.8,24.7,29.94,NE,34,0.0,0.0,88,0.00,CLR,,0.00,WeatherDisplay:10.37,2015-05-06 12:01:00,
2015-05-06 06:06:00,27.6,24.2,29.94,NE,34,0.0,0.0,87,0.00,CLR,,0.00,WeatherDisplay:10.37,2015-05-06 12:06:00,
2015-05-06 06:11:00,27.5,24.4,29.94,NE,34,0.0,0.0,88,0.00,CLR,,0.00,WeatherDisplay:10.37,2015-05-06 12:11:00,
2015-05-06 06:16:00,27.5,24.7,29.94,NE,34,0.0,0.0,89,0.00,CLR,,0.00,WeatherDisplay:10.37,2015-05-06 12:16:00,
2015-05-06 06:21:00,27.5,24.7,29.94,NE,34,0.0,0.0,89,0.00,CLR,,0.00,WeatherDisplay:10.37,2015-05-06 12:21:00,
2015-05-06 06:26:00,27.3,24.5,29.95,NE,34,0.0,0.0,89,0.00,CLR,,0.00,WeatherDisplay:10.37,2015-05-06 12:26:00,
2015-05-06 06:31:00,27.3,24.5,29.95,NE,34,0.0,0.0,89,0.00,CLR,,0.00,WeatherDisplay:10.37,2015-05-06 12:31:00,
2015-05-06 06:36:00,27.3,24.8,29.95,NE,34,0.0,0.0,90,0.00,CLR,,0.00,WeatherDisplay:10.37,2015-05-06 12:36:00,
2015-05-06 06:41:00,27.3,24.8,29.95,NE,34,0.0,0.0,90,0.00,CLR,,0.00,WeatherDisplay:10.37,2015-05-06 12:41:00,
2015-05-06 06:46:00,27.3,24.8,29.95,NE,34,0.0,0.0,90,0.00,CLR,,0.00,WeatherDisplay:10.37,2015-05-06 12:46:00,
2015-05-06 06:51:00,27.3,24.8,29.95,NE,34,0.0,0.0,90,0.00,CLR,,0.00,WeatherDisplay:10.37,2015-05-06 12:51:00,
2015-05-06 06:56:00,27.3,24.8,29.96,NE,34,0.0,0.0,90,0.00,CLR,,0.00,WeatherDisplay:10.37,2015-05-06 12:56:00,
2015-05-06 07:01:00,27.3,24.8,29.96,NE,34,0.0,0.0,90,0.00,FEW,,0.00,WeatherDisplay:10.37,2015-05-06 13:01:00,
2015-05-06 07:06:00,27.5,25.0,29.96,NE,34,0.0,0.0,90,0.00,FEW,,0.00,WeatherDisplay:10.37,2015-05-06 13:06:00,
2015-05-06 07:11:00,27.5,25.0,29.96,NE,34,0.0,0.0,90,0.00,FEW,,0.00,WeatherDisplay:10.37,2015-05-06 13:11:00,
2015-05-06 07:16:00,27.8,25.5,29.96,NE,34,0.0,0.0,91,0.00,FEW,,0.00,WeatherDisplay:10.37,2015-05-06 13:16:00,
2015-05-06 07:21:00,28.2,25.9,29.96,NE,34,0.0,0.0,91,0.00,FEW,,0.00,WeatherDisplay:10.37,2015-05-06 13:21:00,
2015-05-06 07:26:00,28.7,26.7,29.96,NE,34,0.0,0.0,92,0.00,FEW,,0.00,WeatherDisplay:10.37,2015-05-06 13:26:00,
2015-05-06 07:31:00,29.3,27.3,29.96,NE,34,0.0,0.0,92,0.00,FEW,,0.00,WeatherDisplay:10.37,2015-05-06 13:31:00,
2015-05-06 07:36:00,30.1,28.1,29.95,NE,34,0.0,0.0,92,0.00,FEW,,0.00,WeatherDisplay:10.37,2015-05-06 13:36:00,
2015-05-06 07:41:00,30.9,28.3,29.95,NE,34,0.0,0.0,90,0.00,FEW,,0.00,WeatherDisplay:10.37,2015-05-06 13:41:00,
2015-05-06 07:46:00,31.6,28.7,29.94,NE,34,0.0,0.0,89,0.00,FEW,,0.00,WeatherDisplay:10.37,2015-05-06 13:46:00,
2015-05-06 07:51:00,32.2,28.5,29.95,NE,34,0.0,0.0,86,0.00,FEW,,0.00,WeatherDisplay:10.37,2015-05-06 13:51:00,
2015-05-06 07:56:00,32.8,28.5,29.96,NE,34,0.0,0.0,84,0.00,FEW,,0.00,WeatherDisplay:10.37,2015-05-06 13:56:00,
2015-05-06 08:01:00,33.4,28.8,29.96,NE,34,0.0,0.0,83,0.00,CLR,,0.00,WeatherDisplay:10.37,2015-05-06 14:01:00,
2015-05-06 08:06:00,34.0,29.4,29.95,NE,34,0.0,0.0,83,0.00,CLR,,0.00,WeatherDisplay:10.37,2015-05-06 14:06:00,
2015-05-06 08:11:00,34.6,29.7,29.96,NE,34,0.0,0.0,82,0.00,CLR,,0.00,WeatherDisplay:10.37,2015-05-06 14:11:00,
2015-05-06 08:16:00,35.3,29.7,29.95,NE,34,0.0,0.0,80,0.00,CLR,,0.00,WeatherDisplay:10.37,2015-05-06 14:16:00,
2015-05-06 08:21:00,36.2,30.3,29.95,NE,34,3.5,3.5,79,0.00,CLR,,0.00,WeatherDisplay:10.37,2015-05-06 14:21:00,
2015-05-06 08:26:00,36.8,30.3,29.95,NE,34,2.3,0.0,77,0.00,CLR,,0.00,WeatherDisplay:10.37,2015-05-06 14:26:00,
2015-05-06 08:31:00,37.3,30.4,29.95,NE,34,1.2,0.0,76,0.00,CLR,,0.00,WeatherDisplay:10.37,2015-05-06 14:31:00,
2015-05-06 08:36:00,37.9,30.7,29.94,NE,34,3.0,3.0,75,0.00,CLR,,0.00,WeatherDisplay:10.37,2015-05-06 14:36:00,
2015-05-06 08:41:00,38.6,30.7,29.94,NE,34,3.5,3.5,73,0.00,CLR,,0.00,WeatherDisplay:10.37,2015-05-06 14:41:00,
2015-05-06 08:46:00,39.2,30.2,29.94,NE,34,2.3,2.3,70,0.00,CLR,,0.00,WeatherDisplay:10.37,2015-05-06 14:46:00,
2015-05-06 08:51:00,39.9,30.2,29.93,NE,34,3.5,3.5,68,0.00,CLR,,0.00,WeatherDisplay:10.37,2015-05-06 14:51:00,
2015-05-06 08:56:00,40.5,30.8,29.94,NE,34,0.0,0.0,68,0.00,CLR,,0.00,WeatherDisplay:10.37,2015-05-06 14:56:00,
2015-05-06 09:01:00,41.2,30.3,29.94,NE,34,2.3,2.3,65,0.00,CLR,,0.00,WeatherDisplay:10.37,2015-05-06 15:01:00,
2015-05-06 09:06:00,41.9,30.6,29.94,NE,34,0.0,0.0,64,0.00,CLR,,0.00,WeatherDisplay:10.37,2015-05-06 15:06:00,
2015-05-06 09:11:00,42.6,29.7,29.93,NE,34,0.0,0.0,60,0.00,CLR,,0.00,WeatherDisplay:10.37,2015-05-06 15:11:00,
2015-05-06 09:16:00,43.3,29.9,29.94,NE,34,1.0,1.0,59,0.00,CLR,,0.00,WeatherDisplay:10.37,2015-05-06 15:16:00,
2015-05-06 09:21:00,43.8,30.0,29.94,NE,34,0.0,0.0,58,0.00,CLR,,0.00,WeatherDisplay:10.37,2015-05-06 15:21:00,
2015-05-06 09:26:00,44.3,29.6,29.93,NE,34,3.5,3.5,56,0.00,CLR,,0.00,WeatherDisplay:10.37,2015-05-06 15:26:00,
2015-05-06 09:31:00,44.8,29.6,29.93,NE,34,0.0,0.0,55,0.00,CLR,,0.00,WeatherDisplay:10.37,2015-05-06 15:31:00,
2015-05-06 09:36:00,45.5,30.7,29.92,NE,34,0.0,0.0,56,0.00,CLR,,0.00,WeatherDisplay:10.37,2015-05-06 15:36:00,
2015-05-06 09:41:00,46.4,30.2,29.93,NE,34,0.0,0.0,53,0.00,CLR,,0.00,WeatherDisplay:10.37,2015-05-06 15:41:00,
2015-05-06 09:46:00,47.1,29.9,29.92,NE,34,0.0,0.0,51,0.00,CLR,,0.00,WeatherDisplay:10.37,2015-05-06 15:46:00,
2015-05-06 09:51:00,47.6,29.9,29.92,East,94,3.5,3.5,50,0.00,CLR,,0.00,WeatherDisplay:10.37,2015-05-06 15:51:00,
2015-05-06 09:57:00,48.2,30.4,29.93,South,180,4.6,4.6,50,0.00,CLR,,0.00,WeatherDisplay:10.37,2015-05-06 15:57:00,
2015-05-06 10:02:00,48.8,30.0,29.93,SSE,165,4.0,4.0,48,0.00,CLR,,0.00,WeatherDisplay:10.37,2015-05-06 16:02:00,
2015-05-06 10:07:00,49.2,30.3,29.92,SSW,194,1.2,1.2,48,0.00,CLR,,0.00,WeatherDisplay:10.37,2015-05-06 16:07:00,
2015-05-06 10:12:00,49.8,32.9,29.92,South,178,3.5,3.5,52,0.00,CLR,,0.00,WeatherDisplay:10.37,2015-05-06 16:12:00,
2015-05-06 10:17:00,50.2,30.2,29.92,South,175,3.5,3.5,46,0.00,CLR,,0.00,WeatherDisplay:10.37,2015-05-06 16:17:00,
2015-05-06 10:22:00,50.7,30.1,29.91,SW,227,5.8,5.8,45,0.00,CLR,,0.00,WeatherDisplay:10.37,2015-05-06 16:22:00,
2015-05-06 10:27:00,51.0,29.8,29.91,SSE,165,3.5,3.5,44,0.00,CLR,,0.00,WeatherDisplay:10.37,2015-05-06 16:27:00,
2015-05-06 10:32:00,51.4,30.2,29.91,SSE,166,2.3,2.3,44,0.00,CLR,,0.00,WeatherDisplay:10.37,2015-05-06 16:32:00,
2015-05-06 10:37:00,52.0,30.7,29.91,South,186,1.2,0.0,44,0.00,CLR,,0.00,WeatherDisplay:10.37,2015-05-06 16:37:00,
2015-05-06 10:42:00,52.5,29.5,29.91,SSW,194,1.2,1.2,41,0.00,CLR,,0.00,WeatherDisplay:10.37,2015-05-06 16:42:00,
2015-05-06 10:47:00,52.8,27.2,29.90,SSW,192,3.5,3.5,37,0.00,CLR,,0.00,WeatherDisplay:10.37,2015-05-06 16:47:00,
2015-05-06 10:52:00,53.2,26.9,29.90,SSE,159,3.5,3.5,36,0.00,CLR,,0.00,WeatherDisplay:10.37,2015-05-06 16:52:00,
2015-05-06 10:57:00,53.8,26.8,29.91,SSE,157,1.2,1.2,35,0.00,CLR,,0.00,WeatherDisplay:10.37,2015-05-06 16:57:00,
2015-05-06 11:02:00,54.4,27.3,29.91,South,171,4.0,4.0,35,0.00,CLR,,0.00,WeatherDisplay:10.37,2015-05-06 17:02:00,
2015-05-06 11:07:00,54.8,25.5,29.91,SSW,196,0.0,0.0,32,0.00,CLR,,0.00,WeatherDisplay:10.37,2015-05-06 17:07:00,
2015-05-06 11:12:00,55.1,27.9,29.91,SSW,205,4.6,4.6,35,0.00,CLR,,0.00,WeatherDisplay:10.37,2015-05-06 17:12:00,
2015-05-06 11:17:00,55.3,23.5,29.91,SSW,195,4.6,4.6,29,0.00,CLR,,0.00,WeatherDisplay:10.37,2015-05-06 17:17:00,
2015-05-06 11:22:00,55.4,26.7,29.90,SSE,152,6.9,6.9,33,0.00,CLR,,0.00,WeatherDisplay:10.37,2015-05-06 17:22:00,
2015-05-06 11:27:00,55.7,23.9,29.90,South,189,2.3,0.0,29,0.00,CLR,,0.00,WeatherDisplay:10.37,2015-05-06 17:27:00,
2015-05-06 11:32:00,55.9,21.5,29.90,East,85,3.5,3.5,26,0.00,CLR,,0.00,WeatherDisplay:10.37,2015-05-06 17:32:00,
2015-05-06 11:37:00,56.0,22.4,29.90,WSW,240,9.2,9.2,27,0.00,CLR,,0.00,WeatherDisplay:10.37,2015-05-06 17:37:00,
2015-05-06 11:42:00,56.0,24.2,29.89,SSW,202,11.5,11.5,29,0.00,CLR,,0.00,WeatherDisplay:10.37,2015-05-06 17:42:00,
2015-05-06 11:47:00,56.2,20.8,29.89,East,86,3.5,3.5,25,0.00,CLR,,0.00,WeatherDisplay:10.37,2015-05-06 17:47:00,
2015-05-06 11:52:00,56.2,22.6,29.89,SW,234,5.0,5.0,27,0.00,CLR,,0.00,WeatherDisplay:10.37,2015-05-06 17:52:00,
2015-05-06 11:57:00,55.9,22.4,29.91,West,261,4.6,4.6,27,0.00,CLR,,0.00,WeatherDisplay:10.37,2015-05-06 17:57:00,
2015-05-06 12:02:00,55.9,23.2,29.90,WSW,246,0.0,0.0,28,0.00,FEW,,0.00,WeatherDisplay:10.37,2015-05-06 18:02:00,
2015-05-06 12:07:00,56.2,20.8,29.90,WNW,293,4.6,4.6,25,0.00,FEW,,0.00,WeatherDisplay:10.37,2015-05-06 18:07:00,
2015-05-06 12:12:00,56.2,21.7,29.90,WNW,289,4.6,4.6,26,0.00,FEW,,0.00,WeatherDisplay:10.37,2015-05-06 18:12:00,
2015-05-06 12:17:00,56.5,22.9,29.90,SW,215,1.2,1.2,27,0.00,FEW,,0.00,WeatherDisplay:10.37,2015-05-06 18:17:00,
2015-05-06 12:22:00,57.3,23.6,29.90,North,350,4.0,4.0,27,0.00,FEW,,0.00,WeatherDisplay:10.37,2015-05-06 18:22:00,
2015-05-06 12:27:00,57.8,24.0,29.89,WSW,246,9.2,9.2,27,0.00,FEW,,0.00,WeatherDisplay:10.37,2015-05-06 18:27:00,
2015-05-06 12:32:00,57.6,24.7,29.89,SW,224,3.5,3.5,28,0.00,FEW,,0.00,WeatherDisplay:10.37,2015-05-06 18:32:00,
2015-05-06 12:37:00,57.8,24.0,29.89,South,187,6.9,6.9,27,0.00,FEW,,0.00,WeatherDisplay:10.37,2015-05-06 18:37:00,
2015-05-06 12:42:00,58.0,24.2,29.89,SW,229,12.7,12.7,27,0.00,FEW,,0.00,WeatherDisplay:10.37,2015-05-06 18:42:00,
2015-05-06 12:47:00,58.0,25.0,29.89,South,186,6.9,6.9,28,0.00,FEW,,0.00,WeatherDisplay:10.37,2015-05-06 18:47:00,
2015-05-06 12:52:00,58.1,23.3,29.89,WSW,254,13.8,13.8,26,0.00,FEW,,0.00,WeatherDisplay:10.37,2015-05-06 18:52:00,
2015-05-06 12:57:00,58.0,24.2,29.90,South,187,12.0,12.0,27,0.00,FEW,,0.00,WeatherDisplay:10.37,2015-05-06 18:57:00,
2015-05-06 13:02:00,58.1,22.4,29.90,SSW,201,9.2,9.2,25,0.00,OVC,,0.00,WeatherDisplay:10.37,2015-05-06 19:02:00,
2015-05-06 13:07:00,58.0,24.2,29.90,SW,218,3.5,3.5,27,0.00,OVC,,0.00,WeatherDisplay:10.37,2015-05-06 19:07:00,
2015-05-06 13:12:00,58.0,25.0,29.90,SW,225,6.9,6.9,28,0.00,OVC,,0.00,WeatherDisplay:10.37,2015-05-06 19:12:00,
2015-05-06 13:17:00,57.8,23.1,29.90,SW,226,3.5,3.5,26,0.00,OVC,,0.00,WeatherDisplay:10.37,2015-05-06 19:17:00,
2015-05-06 13:22:00,57.8,24.0,29.90,SSW,207,0.0,0.0,27,0.00,OVC,,0.00,WeatherDisplay:10.37,2015-05-06 19:22:00,
2015-05-06 13:28:00,58.0,21.4,29.90,SSW,207,0.0,0.0,24,0.00,OVC,,0.00,WeatherDisplay:10.37,2015-05-06 19:28:00,
2015-05-06 13:32:00,57.8,24.9,29.90,SSE,151,3.5,3.5,28,0.00,OVC,,0.00,WeatherDisplay:10.37,2015-05-06 19:32:00,
2015-05-06 13:38:00,57.5,23.7,29.90,West,264,6.9,6.9,27,0.00,OVC,,0.00,WeatherDisplay:10.37,2015-05-06 19:38:00,
2015-05-06 13:43:00,56.9,23.2,29.90,SW,231,10.4,10.4,27,0.00,OVC,,0.00,WeatherDisplay:10.37,2015-05-06 19:43:00,
2015-05-06 13:48:00,56.5,22.9,29.90,WNW,284,9.2,9.2,27,0.00,OVC,,0.00,WeatherDisplay:10.37,2015-05-06 19:48:00,
2015-05-06 13:53:00,56.3,26.0,29.90,WNW,300,6.9,6.9,31,0.00,OVC,,0.00,WeatherDisplay:10.37,2015-05-06 19:53:00,
2015-05-06 13:58:00,56.3,26.0,29.91,SSW,207,5.8,5.8,31,0.00,OVC,,0.00,WeatherDisplay:10.37,2015-05-06 19:58:00,
2015-05-06 14:03:00,56.3,26.0,29.91,West,261,10.4,10.4,31,0.00,OVC,,0.00,WeatherDisplay:10.37,2015-05-06 20:03:00,
2015-05-06 14:08:00,56.5,24.6,29.90,West,269,3.5,3.5,29,0.00,OVC,,0.00,WeatherDisplay:10.37,2015-05-06 20:08:00,
2015-05-06 14:13:00,56.9,24.1,29.90,WSW,244,7.0,7.0,28,0.00,OVC,,0.00,WeatherDisplay:10.37,2015-05-06 20:13:00,
2015-05-06 14:18:00,57.5,23.7,29.90,South,188,3.5,3.5,27,0.00,OVC,,0.00,WeatherDisplay:10.37,2015-05-06 20:18:00,
2015-05-06 14:23:00,58.7,27.3,29.89,East,90,2.0,2.0,30,0.00,OVC,,0.00,WeatherDisplay:10.37,2015-05-06 20:23:00,
2015-05-06 14:28:00,59.8,25.7,29.89,East,97,1.2,0.0,27,0.00,OVC,,0.00,WeatherDisplay:10.37,2015-05-06 20:28:00,
2015-05-06 14:33:00,60.5,22.5,29.89,WNW,295,3.5,3.5,23,0.00,OVC,,0.00,WeatherDisplay:10.37,2015-05-06 20:33:00,
2015-05-06 14:38:00,60.2,23.2,29.89,North,360,5.8,5.8,24,0.00,OVC,,0.00,WeatherDisplay:10.37,2015-05-06 20:38:00,
2015-05-06 14:43:00,59.9,23.0,29.89,West,277,4.0,4.0,24,0.00,OVC,,0.00,WeatherDisplay:10.37,2015-05-06 20:43:00,
2015-05-06 14:48:00,59.3,21.5,29.89,WSW,254,6.9,6.9,23,0.00,OVC,,0.00,WeatherDisplay:10.37,2015-05-06 20:48:00,
2015-05-06 14:53:00,58.7,21.0,29.89,WNW,298,6.9,6.9,23,0.00,OVC,,0.00,WeatherDisplay:10.37,2015-05-06 20:53:00,
2015-05-06 14:58:00,58.7,22.0,29.90,NNE,33,5.0,5.0,24,0.00,OVC,,0.00,WeatherDisplay:10.37,2015-05-06 20:58:00,
2015-05-06 15:03:00,58.7,19.9,29.89,WNW,294,11.5,11.5,22,0.00,SCT,,0.00,WeatherDisplay:10.37,2015-05-06 21:03:00,
2015-05-06 15:08:00,58.7,22.0,29.90,SW,232,5.8,5.8,24,0.00,SCT,,0.00,WeatherDisplay:10.37,2015-05-06 21:08:00,
2015-05-06 15:13:00,59.2,25.2,29.90,SSW,202,4.6,4.6,27,0.00,SCT,,0.00,WeatherDisplay:10.37,2015-05-06 21:13:00,
2015-05-06 15:18:00,59.6,23.7,29.89,South,171,3.5,3.5,25,0.00,SCT,,0.00,WeatherDisplay:10.37,2015-05-06 21:18:00,
2015-05-06 15:23:00,59.6,20.7,29.89,WSW,248,4.0,4.0,22,0.00,SCT,,0.00,WeatherDisplay:10.37,2015-05-06 21:23:00,
2015-05-06 15:28:00,59.6,20.7,29.89,West,273,3.5,3.5,22,0.00,SCT,,0.00,WeatherDisplay:10.37,2015-05-06 21:28:00,
2015-05-06 15:33:00,59.8,21.9,29.89,WSW,258,5.8,5.8,23,0.00,SCT,,0.00,WeatherDisplay:10.37,2015-05-06 21:33:00,
2015-05-06 15:38:00,59.9,20.9,29.89,South,181,8.1,8.1,22,0.00,SCT,,0.00,WeatherDisplay:10.37,2015-05-06 21:38:00,
2015-05-06 15:43:00,59.9,23.0,29.88,SW,216,10.4,10.4,24,0.00,SCT,,0.00,WeatherDisplay:10.37,2015-05-06 21:43:00,
2015-05-06 15:48:00,59.9,20.9,29.88,NNW,333,3.5,3.5,22,0.00,SCT,,0.00,WeatherDisplay:10.37,2015-05-06 21:48:00,
2015-05-06 15:53:00,60.1,23.1,29.88,NNE,21,9.2,9.2,24,0.00,SCT,,0.00,WeatherDisplay:10.37,2015-05-06 21:53:00,
2015-05-06 15:58:00,60.4,21.3,29.89,WNW,290,3.5,3.5,22,0.00,SCT,,0.00,WeatherDisplay:10.37,2015-05-06 21:58:00,
2015-05-06 16:03:00,60.4,22.4,29.88,WSW,238,5.8,5.8,23,0.00,SCT,,0.00,WeatherDisplay:10.37,2015-05-06 22:03:00,
2015-05-06 16:08:00,60.2,20.1,29.88,West,262,11.5,11.5,21,0.00,SCT,,0.00,WeatherDisplay:10.37,2015-05-06 22:08:00,
2015-05-06 16:13:00,59.9,18.7,29.88,SW,230,6.9,6.9,20,0.00,SCT,,0.00,WeatherDisplay:10.37,2015-05-06 22:13:00,
2015-05-06 16:18:00,59.9,23.0,29.88,NNW,329,4.6,4.6,24,0.00,FEW,,0.00,WeatherDisplay:10.37,2015-05-06 22:18:00,
2015-05-06 16:23:00,60.1,21.1,29.88,WSW,241,5.0,5.0,22,0.00,FEW,,0.00,WeatherDisplay:10.37,2015-05-06 22:23:00,
2015-05-06 16:28:00,59.9,18.7,29.88,SSW,212,10.4,10.4,20,0.00,FEW,,0.00,WeatherDisplay:10.37,2015-05-06 22:28:00,
2015-05-06 16:33:00,59.9,22.0,29.87,WNW,289,4.6,4.6,23,0.00,FEW,,0.00,WeatherDisplay:10.37,2015-05-06 22:33:00,
2015-05-06 16:38:00,59.8,18.6,29.87,WSW,258,4.6,4.6,20,0.00,FEW,,0.00,WeatherDisplay:10.37,2015-05-06 22:38:00,
2015-05-06 16:43:00,59.9,18.7,29.87,WNW,298,6.9,6.9,20,0.00,FEW,,0.00,WeatherDisplay:10.37,2015-05-06 22:43:00,
2015-05-06 16:48:00,60.2,22.2,29.87,NW,310,6.9,6.9,23,0.00,FEW,,0.00,WeatherDisplay:10.37,2015-05-06 22:48:00,
2015-05-06 16:53:00,60.4,16.6,29.87,West,273,5.8,5.8,18,0.00,FEW,,0.00,WeatherDisplay:10.37,2015-05-06 22:53:00,
2015-05-06 16:58:00,60.9,19.5,29.87,West,274,2.3,2.3,20,0.00,FEW,,0.00,WeatherDisplay:10.37,2015-05-06 22:58:00,
2015-05-06 17:03:00,60.9,19.5,29.86,NW,318,7.0,7.0,20,0.00,CLR,,0.00,WeatherDisplay:10.37,2015-05-06 23:03:00,
2015-05-06 17:08:00,60.7,16.9,29.86,NNW,339,6.0,6.0,18,0.00,CLR,,0.00,WeatherDisplay:10.37,2015-05-06 23:08:00,
2015-05-06 17:13:00,60.9,19.5,29.86,NNW,342,6.0,6.0,20,0.00,CLR,,0.00,WeatherDisplay:10.37,2015-05-06 23:13:00,
2015-05-06 17:18:00,60.9,18.3,29.86,NW,319,5.8,5.8,19,0.00,CLR,,0.00,WeatherDisplay:10.37,2015-05-06 23:18:00,
2015-05-06 17:23:00,60.7,16.9,29.86,NW,314,4.6,0.0,18,0.00,CLR,,0.00,WeatherDisplay:10.37,2015-05-06 23:23:00,
2015-05-06 17:28:00,60.5,18.0,29.86,West,262,3.5,3.5,19,0.00,CLR,,0.00,WeatherDisplay:10.37,2015-05-06 23:28:00,
2015-05-06 17:33:00,60.4,19.1,29.86,WNW,286,2.3,2.3,20,0.00,CLR,,0.00,WeatherDisplay:10.37,2015-05-06 23:33:00,
2015-05-06 17:38:00,60.5,20.3,29.86,WSW,237,2.3,2.3,21,0.00,CLR,,0.00,WeatherDisplay:10.37,2015-05-06 23:38:00,